createdAt,value
2018-07-04T00:00:39.607Z,5.60
2018-07-04T00:01:55.163Z,6.00
2018-07-04T00:03:10.663Z,5.65
2018-07-04T00:04:26.258Z,4.60
2018-07-04T00:05:41.645Z,4.83
2018-07-04T00:06:57.023Z,5.50
2018-07-04T00:08:12.412Z,5.70
2018-07-04T00:09:27.913Z,4.87
2018-07-04T00:10:43.434Z,5.17
2018-07-04T00:11:58.812Z,5.25
2018-07-04T00:13:14.059Z,4.47
2018-07-04T00:14:29.249Z,5.75
2018-07-04T00:15:44.679Z,5.85
2018-07-04T00:17:00.143Z,4.97
2018-07-04T00:18:15.498Z,5.05
2018-07-04T00:19:30.918Z,5.87
2018-07-04T00:20:46.489Z,4.92
2018-07-04T00:22:01.834Z,5.30
2018-07-04T00:23:17.195Z,5.08
2018-07-04T00:24:32.799Z,6.12
2018-07-04T00:25:48.244Z,5.10
2018-07-04T00:27:03.506Z,4.83
2018-07-04T00:28:18.882Z,5.33
2018-07-04T00:29:34.306Z,5.70
2018-07-04T00:30:49.537Z,4.70
2018-07-04T00:32:04.904Z,5.15
2018-07-04T00:33:20.211Z,4.85
2018-07-04T00:34:35.660Z,4.75
2018-07-04T00:35:50.995Z,5.50
2018-07-04T00:37:06.304Z,5.55
2018-07-04T00:38:21.579Z,5.08
2018-07-04T00:39:36.972Z,4.55
2018-07-04T00:40:52.421Z,5.10
2018-07-04T00:42:07.714Z,5.17
2018-07-04T00:43:23.192Z,5.37
2018-07-04T00:44:38.493Z,4.92
2018-07-04T00:45:53.930Z,5.20
2018-07-04T00:47:09.298Z,5.22
2018-07-04T00:48:24.598Z,5.65
2018-07-04T00:49:40.110Z,5.20
2018-07-04T00:50:55.652Z,5.40
2018-07-04T00:52:10.986Z,5.75
2018-07-04T00:53:26.317Z,5.60
2018-07-04T00:54:41.598Z,5.55
2018-07-04T00:55:56.904Z,5.65
2018-07-04T00:57:12.310Z,5.65
2018-07-04T00:58:27.623Z,4.80
2018-07-04T00:59:43.082Z,5.35
2018-07-04T01:00:58.420Z,5.28
2018-07-04T01:02:13.903Z,5.67
2018-07-04T01:03:29.398Z,5.42
2018-07-04T01:04:44.821Z,5.28
2018-07-04T01:06:00.227Z,6.00
2018-07-04T01:07:15.644Z,5.53
2018-07-04T01:08:31.029Z,5.15
2018-07-04T01:09:46.410Z,5.25
2018-07-04T01:11:01.976Z,5.65
2018-07-04T01:12:17.595Z,5.95
2018-07-04T01:13:33.140Z,6.90
2018-07-04T01:14:48.687Z,5.67
2018-07-04T01:16:04.017Z,5.67
2018-07-04T01:17:19.378Z,5.87
2018-07-04T01:18:34.705Z,5.58
2018-07-04T01:19:50.088Z,6.00
2018-07-04T01:21:11.035Z,5.70
2018-07-04T01:22:26.407Z,5.90
2018-07-04T01:23:41.695Z,5.47
2018-07-04T01:24:57.172Z,5.92
2018-07-04T01:26:12.619Z,5.45
2018-07-04T01:27:28.121Z,6.20
2018-07-04T01:28:49.679Z,6.00
2018-07-04T01:30:05.074Z,6.22
2018-07-04T01:31:20.427Z,5.53
2018-07-04T01:32:35.763Z,5.20
2018-07-04T01:33:51.280Z,5.40
2018-07-04T01:35:06.603Z,5.75
2018-07-04T01:36:22.071Z,5.55
2018-07-04T01:37:37.382Z,6.28
2018-07-04T01:38:52.733Z,5.30
2018-07-04T01:40:08.003Z,5.53
2018-07-04T01:41:23.489Z,5.92
2018-07-04T01:42:38.949Z,5.60
2018-07-04T01:43:54.306Z,5.45
2018-07-04T01:45:09.824Z,6.05
2018-07-04T01:46:25.099Z,6.55
2018-07-04T01:47:40.660Z,5.80
2018-07-04T01:48:55.975Z,5.70
2018-07-04T01:50:11.348Z,5.85
2018-07-04T01:51:26.811Z,5.70
2018-07-04T01:52:42.199Z,6.08
2018-07-04T01:53:57.566Z,5.72
2018-07-04T01:55:13.029Z,6.20
2018-07-04T01:56:28.419Z,5.92
2018-07-04T01:57:43.791Z,5.80
2018-07-04T01:58:59.240Z,6.72
2018-07-04T02:00:14.743Z,6.58
2018-07-04T02:01:30.182Z,5.55
2018-07-04T02:02:45.634Z,5.55
2018-07-04T02:04:01.065Z,6.47
2018-07-04T02:05:16.605Z,6.10
2018-07-04T02:06:32.049Z,5.67
2018-07-04T02:07:47.531Z,5.70
2018-07-04T02:09:03.204Z,6.17
2018-07-04T02:10:18.497Z,5.35
2018-07-04T02:11:33.916Z,6.20
2018-07-04T02:12:49.403Z,5.92
2018-07-04T02:14:04.773Z,5.58
2018-07-04T02:15:20.222Z,6.55
2018-07-04T02:16:35.590Z,6.97
2018-07-04T02:17:51.074Z,6.50
2018-07-04T02:19:06.458Z,5.70
2018-07-04T02:20:21.820Z,6.30
2018-07-04T02:21:37.286Z,6.35
2018-07-04T02:22:52.707Z,6.35
2018-07-04T02:24:07.983Z,6.40
2018-07-04T02:25:23.282Z,7.25
2018-07-04T02:26:38.707Z,5.70
2018-07-04T02:27:54.051Z,5.53
2018-07-04T02:29:09.494Z,6.20
2018-07-04T02:30:24.787Z,5.87
2018-07-04T02:31:40.271Z,5.35
2018-07-04T02:32:55.716Z,5.97
2018-07-04T02:34:11.119Z,4.85
2018-07-04T02:35:26.610Z,6.20
2018-07-04T02:36:41.938Z,6.00
2018-07-04T02:37:57.207Z,6.33
2018-07-04T02:39:12.502Z,4.97
2018-07-04T02:40:27.888Z,5.55
2018-07-04T02:41:43.123Z,5.47
2018-07-04T02:42:59.077Z,5.72
2018-07-04T02:44:14.519Z,6.20
2018-07-04T02:45:29.981Z,5.78
2018-07-04T02:46:45.387Z,6.10
2018-07-04T02:48:00.621Z,6.47
2018-07-04T02:49:15.837Z,6.05
2018-07-04T02:50:31.377Z,5.37
2018-07-04T02:51:46.913Z,5.80
2018-07-04T02:53:02.281Z,6.42
2018-07-04T02:54:17.734Z,5.95
2018-07-04T02:55:33.247Z,5.92
2018-07-04T02:56:48.784Z,6.05
2018-07-04T02:58:04.135Z,5.90
2018-07-04T02:59:19.478Z,5.62
2018-07-04T03:00:35.042Z,5.70
2018-07-04T03:01:50.434Z,5.83
2018-07-04T03:03:05.795Z,5.97
2018-07-04T03:04:21.118Z,6.58
2018-07-04T03:05:36.577Z,6.20
2018-07-04T03:06:52.018Z,5.30
2018-07-04T03:08:07.568Z,5.62
2018-07-04T03:09:22.963Z,5.47
2018-07-04T03:10:38.254Z,5.60
2018-07-04T03:11:53.629Z,5.30
2018-07-04T03:13:09.482Z,5.90
2018-07-04T03:14:25.075Z,6.20
2018-07-04T03:15:40.527Z,5.40
2018-07-04T03:16:55.935Z,5.45
2018-07-04T03:18:11.182Z,6.25
2018-07-04T03:19:26.582Z,5.75
2018-07-04T03:20:35.949Z,5.92
2018-07-04T03:21:51.272Z,5.80
2018-07-04T03:23:06.654Z,5.20
2018-07-04T03:24:22.195Z,6.10
2018-07-04T03:25:37.479Z,6.00
2018-07-04T03:26:53.010Z,5.85
2018-07-04T03:28:08.807Z,5.55
2018-07-04T03:29:24.306Z,5.90
2018-07-04T03:30:39.850Z,5.87
2018-07-04T03:31:55.167Z,6.85
2018-07-04T03:33:10.514Z,6.15
2018-07-04T03:34:20.011Z,5.90
2018-07-04T03:35:35.462Z,5.30
2018-07-04T03:36:50.805Z,5.58
2018-07-04T03:38:06.153Z,5.05
2018-07-04T03:39:21.537Z,5.40
2018-07-04T03:40:36.812Z,6.30
2018-07-04T03:41:52.176Z,5.60
2018-07-04T03:43:07.514Z,5.40
2018-07-04T03:44:22.793Z,5.15
2018-07-04T03:45:38.133Z,5.35
2018-07-04T03:46:53.430Z,5.70
2018-07-04T03:48:08.857Z,4.50
2018-07-04T03:49:24.245Z,5.25
2018-07-04T03:50:39.404Z,4.80
2018-07-04T03:51:54.977Z,6.00
2018-07-04T03:53:10.574Z,4.95
2018-07-04T03:54:26.068Z,5.35
2018-07-04T03:55:41.737Z,4.97
2018-07-04T03:56:57.062Z,5.12
2018-07-04T03:58:12.772Z,5.00
2018-07-04T03:59:28.206Z,5.35
2018-07-04T04:00:43.688Z,4.97
2018-07-04T04:01:58.992Z,5.47
2018-07-04T04:03:14.359Z,5.00
2018-07-04T04:04:29.752Z,5.97
2018-07-04T04:05:45.094Z,5.40
2018-07-04T04:07:00.491Z,5.00
2018-07-04T04:08:15.793Z,6.05
2018-07-04T04:09:31.127Z,5.60
2018-07-04T04:10:46.614Z,6.00
2018-07-04T04:12:02.140Z,5.75
2018-07-04T04:13:17.732Z,6.05
2018-07-04T04:14:33.023Z,4.40
2018-07-04T04:15:48.400Z,5.50
2018-07-04T04:17:03.867Z,7.75
2018-07-04T04:18:19.400Z,7.25
2018-07-04T04:19:35.347Z,6.83
2018-07-04T04:20:50.646Z,6.85
2018-07-04T04:22:05.924Z,6.05
2018-07-04T04:23:21.212Z,5.30
2018-07-04T04:24:36.404Z,5.33
2018-07-04T04:25:51.763Z,5.87
2018-07-04T04:27:07.133Z,5.75
2018-07-04T04:28:22.576Z,5.22
2018-07-04T04:29:37.999Z,5.95
2018-07-04T04:30:53.377Z,5.62
2018-07-04T04:32:08.896Z,6.03
2018-07-04T04:33:24.236Z,5.47
2018-07-04T04:34:39.682Z,6.03
2018-07-04T04:35:55.078Z,6.28
2018-07-04T04:37:10.512Z,8.18
2018-07-04T04:38:25.944Z,6.85
2018-07-04T04:39:41.566Z,6.70
2018-07-04T04:40:56.957Z,7.25
2018-07-04T04:42:12.385Z,6.47
2018-07-04T04:43:28.014Z,5.45
2018-07-04T04:44:43.439Z,5.95
2018-07-04T04:45:58.600Z,5.70
2018-07-04T04:47:13.915Z,5.10
2018-07-04T04:48:29.535Z,6.60
2018-07-04T04:49:44.864Z,5.50
2018-07-04T04:51:00.317Z,6.12
2018-07-04T04:52:15.801Z,5.53
2018-07-04T04:53:31.215Z,5.17
2018-07-04T04:54:46.531Z,6.83
2018-07-04T04:56:01.690Z,6.55
2018-07-04T04:57:16.987Z,5.83
2018-07-04T04:58:32.344Z,6.28
2018-07-04T04:59:47.701Z,6.30
2018-07-04T05:01:02.929Z,7.50
2018-07-04T05:02:18.222Z,5.97
2018-07-04T05:03:33.744Z,7.80
2018-07-04T05:04:49.214Z,6.05
2018-07-04T05:06:04.966Z,6.00
2018-07-04T05:07:20.451Z,8.65
2018-07-04T05:08:35.793Z,5.83
2018-07-04T05:09:51.243Z,6.65
2018-07-04T05:11:06.556Z,5.53
2018-07-04T05:12:22.013Z,6.85
2018-07-04T05:13:37.310Z,6.30
2018-07-04T05:14:52.882Z,6.08
2018-07-04T05:16:08.218Z,5.35
2018-07-04T05:17:23.653Z,5.45
2018-07-04T05:18:39.164Z,5.33
2018-07-04T05:19:54.631Z,6.83
2018-07-04T05:21:10.074Z,5.47
2018-07-04T05:22:25.491Z,7.83
2018-07-04T05:23:40.949Z,4.97
2018-07-04T05:24:56.257Z,4.72
2018-07-04T05:26:11.581Z,5.30
2018-07-04T05:27:26.917Z,5.58
2018-07-04T05:28:42.294Z,5.70
2018-07-04T05:29:57.605Z,5.58
2018-07-04T05:31:13.052Z,5.03
2018-07-04T05:32:28.494Z,4.97
2018-07-04T05:33:43.927Z,5.37
2018-07-04T05:34:59.203Z,4.47
2018-07-04T05:36:14.476Z,5.30
2018-07-04T05:37:30.039Z,4.97
2018-07-04T05:38:45.417Z,4.20
2018-07-04T05:40:00.699Z,4.53
2018-07-04T05:41:16.187Z,5.05
2018-07-04T05:42:31.453Z,4.22
2018-07-04T05:43:46.782Z,3.70
2018-07-04T05:45:02.069Z,4.33
2018-07-04T05:46:17.491Z,4.75
2018-07-04T05:47:32.962Z,4.75
2018-07-04T05:48:48.218Z,4.28
2018-07-04T05:50:03.527Z,4.90
2018-07-04T05:51:18.918Z,4.80
2018-07-04T05:52:34.354Z,5.65
2018-07-04T05:53:49.973Z,4.65
2018-07-04T05:55:05.548Z,5.30
2018-07-04T05:56:21.144Z,5.50
2018-07-04T05:57:36.586Z,4.47
2018-07-04T05:58:51.976Z,5.10
2018-07-04T06:00:07.524Z,5.67
2018-07-04T06:01:22.993Z,7.15
2018-07-04T06:02:38.552Z,5.65
2018-07-04T06:03:53.944Z,4.47
2018-07-04T06:05:09.367Z,4.40
2018-07-04T06:06:25.078Z,4.40
2018-07-04T06:07:40.675Z,4.42
2018-07-04T06:08:56.007Z,4.22
2018-07-04T06:10:11.291Z,4.70
2018-07-04T06:11:26.659Z,4.80
2018-07-04T06:12:42.088Z,4.55
2018-07-04T06:13:57.614Z,4.72
2018-07-04T06:15:13.116Z,4.40
2018-07-04T06:16:28.516Z,4.22
2018-07-04T06:17:43.924Z,4.10
2018-07-04T06:18:59.309Z,4.58
2018-07-04T06:20:14.707Z,4.40
2018-07-04T06:21:30.144Z,4.53
2018-07-04T06:22:45.421Z,4.62
2018-07-04T06:24:00.807Z,5.42
2018-07-04T06:25:16.167Z,4.78
2018-07-04T06:26:31.661Z,3.70
2018-07-04T06:27:47.730Z,4.35
2018-07-04T06:29:03.211Z,4.25
2018-07-04T06:30:18.530Z,3.75
2018-07-04T06:31:33.866Z,3.90
2018-07-04T06:32:49.210Z,4.33
2018-07-04T06:34:04.547Z,4.17
2018-07-04T06:35:19.705Z,4.08
2018-07-04T06:36:35.179Z,3.90
2018-07-04T06:37:40.423Z,4.60
2018-07-04T06:38:43.396Z,4.03
2018-07-04T06:39:46.477Z,4.00
2018-07-04T06:40:49.457Z,4.40
2018-07-04T06:41:52.423Z,3.98
2018-07-04T06:42:55.400Z,4.20
2018-07-04T06:43:58.477Z,3.80
2018-07-04T06:45:01.469Z,3.87
2018-07-04T06:46:04.468Z,4.37
2018-07-04T06:47:07.448Z,3.30
2018-07-04T06:48:10.419Z,4.45
2018-07-04T06:49:13.455Z,3.60
2018-07-04T06:50:16.397Z,3.98
2018-07-04T06:51:19.399Z,4.28
2018-07-04T06:52:22.498Z,4.50
2018-07-04T06:53:25.520Z,3.70
2018-07-04T06:54:28.555Z,4.10
2018-07-04T06:55:31.507Z,3.77
2018-07-04T06:56:34.486Z,5.37
2018-07-04T06:57:37.446Z,3.72
2018-07-04T06:58:40.452Z,3.70
2018-07-04T06:59:43.419Z,3.80
2018-07-04T07:00:46.577Z,4.20
2018-07-04T07:01:49.574Z,4.22
2018-07-04T07:03:05.058Z,4.12
2018-07-04T07:04:20.267Z,4.17
2018-07-04T07:05:35.588Z,4.05
2018-07-04T07:06:51.060Z,3.85
2018-07-04T07:08:06.508Z,3.55
2018-07-04T07:09:21.821Z,4.65
2018-07-04T07:10:37.086Z,4.20
2018-07-04T07:11:52.481Z,3.85
2018-07-04T07:13:07.914Z,3.87
2018-07-04T07:14:23.235Z,3.72
2018-07-04T07:15:38.550Z,4.58
2018-07-04T07:16:53.983Z,4.90
2018-07-04T07:18:09.861Z,4.80
2018-07-04T07:19:25.363Z,4.40
2018-07-04T07:20:40.707Z,4.45
2018-07-04T07:21:56.033Z,4.70
2018-07-04T07:23:11.373Z,6.95
2018-07-04T07:24:26.959Z,7.10
2018-07-04T07:25:42.526Z,17.32
2018-07-04T07:26:57.877Z,5.70
2018-07-04T07:28:13.178Z,4.90
2018-07-04T07:29:28.527Z,4.92
2018-07-04T07:30:43.803Z,5.25
2018-07-04T07:31:59.075Z,4.60
2018-07-04T07:33:14.467Z,4.70
2018-07-04T07:34:29.910Z,4.12
2018-07-04T07:35:45.288Z,4.65
2018-07-04T07:37:00.731Z,5.20
2018-07-04T07:38:16.175Z,5.42
2018-07-04T07:39:31.534Z,4.10
2018-07-04T07:40:46.827Z,4.15
2018-07-04T07:42:02.512Z,4.30
2018-07-04T07:43:17.833Z,4.60
2018-07-04T07:44:33.169Z,4.47
2018-07-04T07:45:48.518Z,4.28
2018-07-04T07:47:04.014Z,4.70
2018-07-04T07:48:19.312Z,4.83
2018-07-04T07:49:34.816Z,4.55
2018-07-04T07:50:50.061Z,4.55
2018-07-04T07:52:05.314Z,4.15
2018-07-04T07:53:20.684Z,4.58
2018-07-04T07:54:36.055Z,4.47
2018-07-04T07:55:51.447Z,4.15
2018-07-04T07:57:06.710Z,4.30
2018-07-04T07:58:22.018Z,4.15
2018-07-04T07:59:37.652Z,4.47
2018-07-04T08:00:53.075Z,4.20
2018-07-04T08:02:02.514Z,4.30
2018-07-04T08:03:17.732Z,5.08
2018-07-04T08:04:33.066Z,4.12
2018-07-04T08:05:48.659Z,5.40
2018-07-04T08:07:04.087Z,4.00
2018-07-04T08:08:19.393Z,4.87
2018-07-04T08:09:34.767Z,4.45
2018-07-04T08:10:50.094Z,4.70
2018-07-04T08:12:05.434Z,4.97
2018-07-04T08:13:20.985Z,4.40
2018-07-04T08:14:36.832Z,4.33
2018-07-04T08:15:52.244Z,4.17
2018-07-04T08:17:07.676Z,4.72
2018-07-04T08:18:23.124Z,4.55
2018-07-04T08:19:38.612Z,4.53
2018-07-04T08:20:54.015Z,4.50
2018-07-04T08:22:09.670Z,3.95
2018-07-04T08:24:28.717Z,5.53
2018-07-04T08:25:44.102Z,5.25
2018-07-04T08:26:59.723Z,5.15
2018-07-04T08:28:15.049Z,4.53
2018-07-04T08:29:30.326Z,4.30
2018-07-04T08:30:45.829Z,5.45
2018-07-04T08:32:01.299Z,4.25
2018-07-04T08:33:16.679Z,4.30
2018-07-04T08:34:32.083Z,4.60
2018-07-04T08:35:47.538Z,5.30
2018-07-04T08:37:03.202Z,5.40
2018-07-04T08:38:18.580Z,5.05
2018-07-04T08:39:33.994Z,6.10
2018-07-04T08:40:49.515Z,4.83
2018-07-04T08:42:04.953Z,4.42
2018-07-04T08:43:20.382Z,4.30
2018-07-04T08:44:35.783Z,4.62
2018-07-04T08:45:51.034Z,4.42
2018-07-04T08:47:06.685Z,4.28
2018-07-04T08:48:21.992Z,4.85
2018-07-04T08:49:37.394Z,3.85
2018-07-04T08:50:52.706Z,4.42
2018-07-04T08:52:08.099Z,5.47
2018-07-04T08:53:23.366Z,4.95
2018-07-04T08:54:38.941Z,5.40
2018-07-04T08:55:54.353Z,4.80
2018-07-04T08:57:09.688Z,5.10
2018-07-04T08:58:25.120Z,4.42
2018-07-04T08:59:40.337Z,4.40
2018-07-04T09:00:55.640Z,5.17
2018-07-04T09:02:10.907Z,4.30
2018-07-04T09:03:26.325Z,4.70
2018-07-04T09:04:41.800Z,5.20
2018-07-04T09:05:57.107Z,10.35
2018-07-04T09:07:12.386Z,5.22
2018-07-04T09:08:27.796Z,4.65
2018-07-04T09:09:43.271Z,4.85
2018-07-04T09:10:58.628Z,5.08
2018-07-04T09:12:13.983Z,4.67
2018-07-04T09:13:29.327Z,5.15
2018-07-04T09:14:44.820Z,5.05
2018-07-04T09:16:00.189Z,5.40
2018-07-04T09:17:15.506Z,4.55
2018-07-04T09:18:30.938Z,4.90
2018-07-04T09:19:46.159Z,5.35
2018-07-04T09:21:01.441Z,5.90
2018-07-04T09:22:16.838Z,3.92
2018-07-04T09:23:32.181Z,5.35
2018-07-04T09:24:47.572Z,5.72
2018-07-04T09:26:03.085Z,5.50
2018-07-04T09:27:18.565Z,4.90
2018-07-04T09:28:33.926Z,5.85
2018-07-04T09:29:49.529Z,5.40
2018-07-04T09:31:05.245Z,3.95
2018-07-04T09:32:20.682Z,4.62
2018-07-04T09:33:35.929Z,4.80
2018-07-04T09:34:51.283Z,4.33
2018-07-04T09:36:06.640Z,4.95
2018-07-04T09:37:22.021Z,5.80
2018-07-04T09:38:37.400Z,5.47
2018-07-04T09:39:52.897Z,5.22
2018-07-04T09:41:08.091Z,4.92
2018-07-04T09:42:23.466Z,4.85
2018-07-04T09:43:38.874Z,4.97
2018-07-04T09:44:54.366Z,5.08
2018-07-04T09:46:09.868Z,5.22
2018-07-04T09:47:25.368Z,6.50
2018-07-04T09:48:40.723Z,7.17
2018-07-04T09:49:56.102Z,5.62
2018-07-04T09:51:11.487Z,4.90
2018-07-04T09:52:26.956Z,4.50
2018-07-04T09:53:42.486Z,6.10
2018-07-04T09:54:57.823Z,5.83
2018-07-04T09:56:13.335Z,5.05
2018-07-04T09:57:28.731Z,5.20
2018-07-04T09:58:44.040Z,5.33
2018-07-04T09:59:59.394Z,4.78
2018-07-04T10:01:20.388Z,4.62
2018-07-04T10:02:35.747Z,5.00
2018-07-04T10:03:51.143Z,4.65
2018-07-04T10:05:06.530Z,4.83
2018-07-04T10:06:22.013Z,4.80
2018-07-04T10:07:37.437Z,5.75
2018-07-04T10:08:52.921Z,5.78
2018-07-04T10:10:08.241Z,5.47
2018-07-04T10:11:23.733Z,6.03
2018-07-04T10:12:39.384Z,5.15
2018-07-04T10:13:54.823Z,5.40
2018-07-04T10:15:10.116Z,4.33
2018-07-04T10:16:25.277Z,5.03
2018-07-04T10:17:40.734Z,4.60
2018-07-04T10:18:56.092Z,5.00
2018-07-04T10:20:11.599Z,4.65
2018-07-04T10:21:27.070Z,5.70
2018-07-04T10:22:42.618Z,4.90
2018-07-04T10:23:58.056Z,5.33
2018-07-04T10:25:13.356Z,5.20
2018-07-04T10:26:28.698Z,4.47
2018-07-04T10:27:44.077Z,5.00
2018-07-04T10:28:59.590Z,5.47
2018-07-04T10:30:14.881Z,5.92
2018-07-04T10:31:30.239Z,5.33
2018-07-04T10:32:45.700Z,6.25
2018-07-04T10:34:01.151Z,6.00
2018-07-04T10:35:16.607Z,5.83
2018-07-04T10:36:31.828Z,5.85
2018-07-04T10:37:47.311Z,4.95
2018-07-04T10:39:02.969Z,5.60
2018-07-04T10:40:18.204Z,4.10
2018-07-04T10:41:33.589Z,4.87
2018-07-04T10:42:49.073Z,3.85
2018-07-04T10:44:04.416Z,4.62
2018-07-04T10:45:19.631Z,4.12
2018-07-04T10:46:34.972Z,5.10
2018-07-04T10:47:50.432Z,4.03
2018-07-04T10:49:05.865Z,4.00
2018-07-04T10:50:21.251Z,4.00
2018-07-04T10:51:36.717Z,5.00
2018-07-04T10:52:52.215Z,4.35
2018-07-04T10:54:07.603Z,4.50
2018-07-04T10:55:23.075Z,4.12
2018-07-04T10:56:38.445Z,4.62
2018-07-04T10:57:53.980Z,4.45
2018-07-04T10:59:09.463Z,3.60
2018-07-04T11:00:24.758Z,3.90
2018-07-04T11:01:40.216Z,3.95
2018-07-04T11:02:55.555Z,3.58
2018-07-04T11:04:11.102Z,5.00
2018-07-04T11:05:26.432Z,3.55
2018-07-04T11:06:42.239Z,3.83
2018-07-04T11:07:57.632Z,3.90
2018-07-04T11:09:12.985Z,4.62
2018-07-04T11:10:28.309Z,3.60
2018-07-04T11:11:43.886Z,3.75
2018-07-04T11:12:59.243Z,4.12
2018-07-04T11:14:14.619Z,3.58
2018-07-04T11:15:29.936Z,4.17
2018-07-04T11:16:45.244Z,3.98
2018-07-04T11:18:00.594Z,4.20
2018-07-04T11:19:09.931Z,6.50
2018-07-04T11:20:25.153Z,5.92
2018-07-04T11:21:40.505Z,5.95
2018-07-04T11:22:56.047Z,4.97
2018-07-04T11:24:11.414Z,4.37
2018-07-04T11:25:26.702Z,4.85
2018-07-04T11:26:42.068Z,4.28
2018-07-04T11:27:57.511Z,7.17
2018-07-04T11:29:13.078Z,4.90
2018-07-04T11:30:28.396Z,4.12
2018-07-04T11:31:43.760Z,4.60
2018-07-04T11:32:59.166Z,5.22
2018-07-04T11:34:14.554Z,4.72
2018-07-04T11:35:29.888Z,4.12
2018-07-04T11:36:45.436Z,4.45
2018-07-04T11:38:00.762Z,5.03
2018-07-04T11:39:16.130Z,7.53
2018-07-04T11:40:31.626Z,4.70
2018-07-04T11:41:47.109Z,4.45
2018-07-04T11:43:02.390Z,4.03
2018-07-04T11:44:17.747Z,4.70
2018-07-04T11:45:33.165Z,4.00
2018-07-04T11:46:36.145Z,4.00
2018-07-04T11:47:39.122Z,3.70
2018-07-04T11:48:42.129Z,4.40
2018-07-04T11:49:45.130Z,4.65
2018-07-04T11:50:48.074Z,4.03
2018-07-04T11:51:51.059Z,4.70
2018-07-04T11:52:54.028Z,4.55
2018-07-04T11:53:57.426Z,4.40
2018-07-04T11:55:00.422Z,4.08
2018-07-04T11:56:03.513Z,4.10
2018-07-04T11:57:06.515Z,5.08
2018-07-04T11:58:09.494Z,4.60
2018-07-04T11:59:12.428Z,4.28
2018-07-04T12:00:15.393Z,4.42
2018-07-04T12:01:18.366Z,4.20
2018-07-04T12:02:21.363Z,4.55
2018-07-04T12:03:24.349Z,3.83
2018-07-04T12:04:39.684Z,3.75
2018-07-04T12:05:55.572Z,4.15
2018-07-04T12:07:06.936Z,4.00
2018-07-04T12:08:09.908Z,4.30
2018-07-04T12:09:12.889Z,3.60
2018-07-04T12:10:15.849Z,4.08
2018-07-04T12:11:18.792Z,4.03
2018-07-04T12:12:22.018Z,4.05
2018-07-04T12:13:26.020Z,4.00
2018-07-04T12:14:29.440Z,4.00
2018-07-04T12:15:32.406Z,3.25
2018-07-04T12:16:35.388Z,3.65
2018-07-04T12:17:38.371Z,3.60
2018-07-04T12:18:41.324Z,3.50
2018-07-04T12:19:44.293Z,3.85
2018-07-04T12:20:47.298Z,4.10
2018-07-04T12:21:50.275Z,4.05
2018-07-04T12:22:53.255Z,4.20
2018-07-04T12:23:56.273Z,3.27
2018-07-04T12:24:59.258Z,3.55
2018-07-04T12:26:02.222Z,3.55
2018-07-04T12:27:05.180Z,3.55
2018-07-04T12:28:08.361Z,4.50
2018-07-04T12:29:11.653Z,3.58
2018-07-04T12:30:14.648Z,3.90
2018-07-04T12:31:17.616Z,3.83
2018-07-04T12:32:20.605Z,4.05
2018-07-04T12:33:23.607Z,4.10
2018-07-04T12:34:26.577Z,3.80
2018-07-04T12:35:29.559Z,3.52
2018-07-04T12:36:32.852Z,3.95
2018-07-04T12:37:35.845Z,4.62
2018-07-04T12:38:38.790Z,4.80
2018-07-04T12:39:41.738Z,4.37
2018-07-04T12:40:44.734Z,4.17
2018-07-04T12:41:47.705Z,5.05
2018-07-04T12:42:50.691Z,4.37
2018-07-04T12:43:53.650Z,5.00
2018-07-04T12:44:56.632Z,4.78
2018-07-04T12:45:59.602Z,4.00
2018-07-04T12:47:02.865Z,4.70
2018-07-04T12:48:05.698Z,2.98
2018-07-04T12:49:08.697Z,3.83
2018-07-04T12:50:24.101Z,4.90
2018-07-04T12:51:27.062Z,3.37
2018-07-04T12:52:30.030Z,3.05
2018-07-04T12:53:33.016Z,4.33
2018-07-04T12:54:42.054Z,4.10
2018-07-04T12:55:57.288Z,3.55
2018-07-04T12:57:12.697Z,3.80
2018-07-04T12:58:28.081Z,3.33
2018-07-04T12:59:43.718Z,4.50
2018-07-04T13:00:59.344Z,4.15
2018-07-04T13:02:14.867Z,4.50
2018-07-04T13:03:24.200Z,4.33
2018-07-04T13:04:39.427Z,4.28
2018-07-04T13:05:54.798Z,5.17
2018-07-04T13:07:10.253Z,3.67
2018-07-04T13:08:25.668Z,4.30
2018-07-04T13:09:41.116Z,4.85
2018-07-04T13:10:56.503Z,4.08
2018-07-04T13:12:12.156Z,4.25
2018-07-04T13:13:27.602Z,5.37
2018-07-04T13:14:43.270Z,5.40
2018-07-04T13:15:58.713Z,4.85
2018-07-04T13:17:14.084Z,4.42
2018-07-04T13:18:29.374Z,4.15
2018-07-04T13:19:44.862Z,4.17
2018-07-04T13:20:54.305Z,4.17
2018-07-04T13:22:09.534Z,4.40
2018-07-04T13:23:24.881Z,4.40
2018-07-04T13:24:40.311Z,4.70
2018-07-04T13:25:50.565Z,5.30
2018-07-04T13:27:05.824Z,4.92
2018-07-04T13:28:21.412Z,4.55
2018-07-04T13:29:36.775Z,4.60
2018-07-04T13:30:52.087Z,4.65
2018-07-04T13:32:07.770Z,5.85
2018-07-04T13:33:23.005Z,5.85
2018-07-04T13:34:38.294Z,5.22
2018-07-04T13:35:53.767Z,4.72
2018-07-04T13:37:09.100Z,4.47
2018-07-04T13:38:24.573Z,5.20
2018-07-04T13:39:39.889Z,4.85
2018-07-04T13:40:55.404Z,5.70
2018-07-04T13:42:10.734Z,4.87
2018-07-04T13:43:26.028Z,5.10
2018-07-04T13:44:41.358Z,5.55
2018-07-04T13:45:56.696Z,5.40
2018-07-04T13:47:12.049Z,5.00
2018-07-04T13:48:27.296Z,6.25
2018-07-04T13:49:42.921Z,5.70
2018-07-04T13:50:58.380Z,5.37
2018-07-04T13:52:13.596Z,4.87
2018-07-04T13:53:28.901Z,5.80
2018-07-04T13:54:44.427Z,4.83
2018-07-04T13:55:59.908Z,4.37
2018-07-04T13:57:15.555Z,4.87
2018-07-04T13:58:31.030Z,4.47
2018-07-04T13:59:40.270Z,5.15
2018-07-04T14:00:55.520Z,4.80
2018-07-04T14:02:10.922Z,5.03
2018-07-04T14:03:26.159Z,4.65
2018-07-04T14:04:42.596Z,4.25
2018-07-04T14:05:57.961Z,4.67
2018-07-04T14:07:13.356Z,4.83
2018-07-04T14:08:28.920Z,5.60
2018-07-04T14:09:44.537Z,4.33
2018-07-04T14:11:00.067Z,4.58
2018-07-04T14:12:15.485Z,3.92
2018-07-04T14:13:30.858Z,3.70
2018-07-04T14:14:46.314Z,3.70
2018-07-04T14:16:01.603Z,3.67
2018-07-04T14:17:16.846Z,4.35
2018-07-04T14:18:32.236Z,3.45
2018-07-04T14:19:47.499Z,3.72
2018-07-04T14:21:02.893Z,3.52
2018-07-04T14:22:18.364Z,3.72
2018-07-04T14:23:33.731Z,3.80
2018-07-04T14:24:49.254Z,3.67
2018-07-04T14:26:04.704Z,3.85
2018-07-04T14:27:20.077Z,3.55
2018-07-04T14:28:35.570Z,3.45
2018-07-04T14:29:50.979Z,3.70
2018-07-04T14:31:06.388Z,3.52
2018-07-04T14:32:21.790Z,4.20
2018-07-04T14:33:37.057Z,2.90
2018-07-04T14:34:52.536Z,3.95
2018-07-04T14:36:08.170Z,3.27
2018-07-04T14:37:23.671Z,3.65
2018-07-04T14:38:39.106Z,3.67
2018-07-04T14:39:54.523Z,3.50
2018-07-04T14:41:09.925Z,3.30
2018-07-04T14:42:25.260Z,3.02
2018-07-04T14:43:40.653Z,2.70
2018-07-04T14:44:55.989Z,3.00
2018-07-04T14:46:11.491Z,2.90
2018-07-04T14:47:26.943Z,3.10
2018-07-04T14:48:42.241Z,2.45
2018-07-04T14:49:57.576Z,3.35
2018-07-04T14:51:13.073Z,3.25
2018-07-04T14:52:28.552Z,3.02
2018-07-04T14:53:43.693Z,3.20
2018-07-04T14:54:59.133Z,3.05
2018-07-04T14:56:14.539Z,3.08
2018-07-04T14:57:29.919Z,2.77
2018-07-04T14:58:45.330Z,2.62
2018-07-04T15:00:00.883Z,2.60
2018-07-04T15:01:16.377Z,3.37
2018-07-04T15:02:32.721Z,3.05
2018-07-04T15:03:48.036Z,3.70
2018-07-04T15:05:03.455Z,3.25
2018-07-04T15:06:19.007Z,3.70
2018-07-04T15:07:34.407Z,3.45
2018-07-04T15:08:49.919Z,2.80
2018-07-04T15:10:05.420Z,4.12
2018-07-04T15:11:21.032Z,3.67
2018-07-04T15:12:36.454Z,4.10
2018-07-04T15:14:55.123Z,3.33
2018-07-04T15:16:10.785Z,3.17
2018-07-04T15:17:26.354Z,2.90
2018-07-04T15:18:42.163Z,2.77
2018-07-04T15:19:57.528Z,2.75
2018-07-04T15:21:12.799Z,3.15
2018-07-04T15:22:28.520Z,3.20
2018-07-04T15:23:43.865Z,3.72
2018-07-04T15:24:59.498Z,3.47
2018-07-04T15:26:15.249Z,3.22
2018-07-04T15:27:30.808Z,3.83
2018-07-04T15:28:46.102Z,3.10
2018-07-04T15:30:01.484Z,3.10
2018-07-04T15:31:16.891Z,3.20
2018-07-04T15:32:32.263Z,3.85
2018-07-04T15:33:47.669Z,3.42
2018-07-04T15:35:03.254Z,3.45
2018-07-04T15:36:18.662Z,3.80
2018-07-04T15:37:34.171Z,3.27
2018-07-04T15:38:49.542Z,3.22
2018-07-04T15:40:04.975Z,3.05
2018-07-04T15:41:20.295Z,3.58
2018-07-04T15:42:35.753Z,3.92
2018-07-04T15:43:51.361Z,3.20
2018-07-04T15:45:06.719Z,3.33
2018-07-04T15:46:22.257Z,3.30
2018-07-04T15:47:37.641Z,3.40
2018-07-04T15:48:53.085Z,3.10
2018-07-04T15:50:08.720Z,3.45
2018-07-04T15:51:24.577Z,3.42
2018-07-04T15:52:39.914Z,4.87
2018-07-04T15:53:55.251Z,4.03
2018-07-04T15:55:10.759Z,3.80
2018-07-04T15:56:26.137Z,3.25
2018-07-04T15:57:41.558Z,3.85
2018-07-04T15:58:56.889Z,4.00
2018-07-04T16:00:12.210Z,4.17
2018-07-04T16:01:27.658Z,4.35
2018-07-04T16:02:43.023Z,4.03
2018-07-04T16:03:58.424Z,5.22
2018-07-04T16:05:13.745Z,3.40
2018-07-04T16:06:29.270Z,3.37
2018-07-04T16:07:44.678Z,3.62
2018-07-04T16:09:00.187Z,3.42
2018-07-04T16:10:15.528Z,3.90
2018-07-04T16:11:30.902Z,3.50
2018-07-04T16:12:46.255Z,4.17
2018-07-04T16:14:01.530Z,4.15
2018-07-04T16:15:16.805Z,3.50
2018-07-04T16:16:32.299Z,4.50
2018-07-04T16:17:47.801Z,3.30
2018-07-04T16:19:03.213Z,3.10
2018-07-04T16:20:18.595Z,2.83
2018-07-04T16:21:33.877Z,2.73
2018-07-04T16:22:49.191Z,3.20
2018-07-04T16:24:04.687Z,3.20
2018-07-04T16:25:20.273Z,2.30
2018-07-04T16:26:35.603Z,3.23
2018-07-04T16:27:50.962Z,2.90